Terminal Aerodrome Forecast
Issued by NWS Twin Cities, MN

Home | Current Version | Previous Version | Graphics & Text | Print | Product List | Glossary On
Versions: 1 2 3 4 5 6 7 8 9 10 11 12 13 14 15
721
FTUS43 KMPX 181724
TAFSTC
TAF
KSTC 181724Z 1818/1918 02010KT P6SM OVC025
     FM182200 01008KT P6SM OVC040
     FM190200 VRB03KT P6SM SKC=

USA.gov is the U.S. government's official web portal to all federal, state and local government web resources and services.